sensor_id;sensor_type;location;lat;lon;timestamp;temperature;humidity
74968;SHT30;63523;51.880;12.630;2023-08-30T00:01:28;14.98;84.99
74968;SHT30;63523;51.880;12.630;2023-08-30T00:03:53;14.95;84.90
74968;SHT30;63523;51.880;12.630;2023-08-30T00:06:19;14.95;84.81
74968;SHT30;63523;51.880;12.630;2023-08-30T00:08:45;14.94;85.02
74968;SHT30;63523;51.880;12.630;2023-08-30T00:11:10;14.93;85.13
74968;SHT30;63523;51.880;12.630;2023-08-30T00:13:35;14.91;85.02
74968;SHT30;63523;51.880;12.630;2023-08-30T00:16:01;14.87;85.32
74968;SHT30;63523;51.880;12.630;2023-08-30T00:18:27;14.85;85.51
74968;SHT30;63523;51.880;12.630;2023-08-30T00:20:53;14.88;85.72
74968;SHT30;63523;51.880;12.630;2023-08-30T00:23:18;14.87;86.05
74968;SHT30;63523;51.880;12.630;2023-08-30T00:25:44;14.91;86.12
74968;SHT30;63523;51.880;12.630;2023-08-30T00:28:09;14.88;86.16
74968;SHT30;63523;51.880;12.630;2023-08-30T00:30:34;14.85;85.89
74968;SHT30;63523;51.880;12.630;2023-08-30T00:33:00;14.87;85.67
74968;SHT30;63523;51.880;12.630;2023-08-30T00:35:25;14.87;85.59
74968;SHT30;63523;51.880;12.630;2023-08-30T00:37:50;14.90;85.75
74968;SHT30;63523;51.880;12.630;2023-08-30T00:40:16;14.93;86.03
74968;SHT30;63523;51.880;12.630;2023-08-30T00:42:41;14.91;86.05
74968;SHT30;63523;51.880;12.630;2023-08-30T00:45:07;14.94;86.03
74968;SHT30;63523;51.880;12.630;2023-08-30T00:47:33;14.94;85.89
74968;SHT30;63523;51.880;12.630;2023-08-30T00:49:58;14.93;85.97
74968;SHT30;63523;51.880;12.630;2023-08-30T00:52:24;14.95;86.11
74968;SHT30;63523;51.880;12.630;2023-08-30T00:54:50;14.98;86.09
74968;SHT30;63523;51.880;12.630;2023-08-30T00:57:16;14.98;85.98
74968;SHT30;63523;51.880;12.630;2023-08-30T00:59:41;15.00;86.00
74968;SHT30;63523;51.880;12.630;2023-08-30T01:02:06;15.00;86.11
74968;SHT30;63523;51.880;12.630;2023-08-30T01:04:32;15.02;86.24
74968;SHT30;63523;51.880;12.630;2023-08-30T01:06:57;15.04;86.18
74968;SHT30;63523;51.880;12.630;2023-08-30T01:09:24;15.02;86.00
74968;SHT30;63523;51.880;12.630;2023-08-30T01:11:58;15.00;85.80
74968;SHT30;63523;51.880;12.630;2023-08-30T01:15:13;14.95;85.86
74968;SHT30;63523;51.880;12.630;2023-08-30T01:17:14;15.00;85.76
74968;SHT30;63523;51.880;12.630;2023-08-30T01:19:48;15.01;85.82
74968;SHT30;63523;51.880;12.630;2023-08-30T01:22:21;15.01;85.85
74968;SHT30;63523;51.880;12.630;2023-08-30T01:27:41;15.02;85.62
74968;SHT30;63523;51.880;12.630;2023-08-30T01:30:08;15.11;85.41
74968;SHT30;63523;51.880;12.630;2023-08-30T01:32:35;15.05;85.41
74968;SHT30;63523;51.880;12.630;2023-08-30T01:35:03;15.04;85.37
74968;SHT30;63523;51.880;12.630;2023-08-30T01:37:29;15.01;85.38
74968;SHT30;63523;51.880;12.630;2023-08-30T01:39:55;15.02;85.36
74968;SHT30;63523;51.880;12.630;2023-08-30T01:42:25;15.00;85.47
74968;SHT30;63523;51.880;12.630;2023-08-30T01:44:52;14.98;85.55
74968;SHT30;63523;51.880;12.630;2023-08-30T01:47:20;14.98;85.60
74968;SHT30;63523;51.880;12.630;2023-08-30T01:49:46;15.00;85.62
74968;SHT30;63523;51.880;12.630;2023-08-30T01:52:12;15.00;85.47
74968;SHT30;63523;51.880;12.630;2023-08-30T01:54:38;15.02;85.66
74968;SHT30;63523;51.880;12.630;2023-08-30T01:57:06;15.01;85.71
74968;SHT30;63523;51.880;12.630;2023-08-30T01:59:31;15.02;85.98
74968;SHT30;63523;51.880;12.630;2023-08-30T02:01:56;15.02;85.81
74968;SHT30;63523;51.880;12.630;2023-08-30T02:04:22;15.00;85.86
74968;SHT30;63523;51.880;12.630;2023-08-30T02:06:58;15.01;85.79
74968;SHT30;63523;51.880;12.630;2023-08-30T02:09:49;14.98;85.64
74968;SHT30;63523;51.880;12.630;2023-08-30T02:12:16;14.97;85.70
74968;SHT30;63523;51.880;12.630;2023-08-30T02:14:47;15.00;85.88
74968;SHT30;63523;51.880;12.630;2023-08-30T02:17:14;15.00;85.81
74968;SHT30;63523;51.880;12.630;2023-08-30T02:19:40;14.98;85.81
74968;SHT30;63523;51.880;12.630;2023-08-30T02:22:06;14.98;85.86
74968;SHT30;63523;51.880;12.630;2023-08-30T02:24:31;15.01;85.77
74968;SHT30;63523;51.880;12.630;2023-08-30T02:26:56;14.98;85.93
74968;SHT30;63523;51.880;12.630;2023-08-30T02:29:21;15.00;85.96
74968;SHT30;63523;51.880;12.630;2023-08-30T02:31:47;15.07;85.84
74968;SHT30;63523;51.880;12.630;2023-08-30T02:34:12;15.07;85.46
74968;SHT30;63523;51.880;12.630;2023-08-30T02:36:37;15.08;85.53
74968;SHT30;63523;51.880;12.630;2023-08-30T02:39:03;15.08;85.42
74968;SHT30;63523;51.880;12.630;2023-08-30T02:41:28;15.07;85.17
74968;SHT30;63523;51.880;12.630;2023-08-30T02:43:54;15.05;85.33
74968;SHT30;63523;51.880;12.630;2023-08-30T02:46:19;15.04;85.44
74968;SHT30;63523;51.880;12.630;2023-08-30T02:48:44;15.02;85.54
74968;SHT30;63523;51.880;12.630;2023-08-30T02:51:09;15.02;85.67
74968;SHT30;63523;51.880;12.630;2023-08-30T02:53:35;15.04;85.88
74968;SHT30;63523;51.880;12.630;2023-08-30T02:56:00;15.01;85.84
74968;SHT30;63523;51.880;12.630;2023-08-30T02:58:25;15.01;85.70
74968;SHT30;63523;51.880;12.630;2023-08-30T03:00:51;15.00;85.62
74968;SHT30;63523;51.880;12.630;2023-08-30T03:03:16;14.93;85.49
74968;SHT30;63523;51.880;12.630;2023-08-30T03:05:42;14.91;85.45
74968;SHT30;63523;51.880;12.630;2023-08-30T03:08:07;14.88;85.38
74968;SHT30;63523;51.880;12.630;2023-08-30T03:10:32;14.87;85.44
74968;SHT30;63523;51.880;12.630;2023-08-30T03:12:58;14.81;85.46
74968;SHT30;63523;51.880;12.630;2023-08-30T03:15:23;14.81;85.83
74968;SHT30;63523;51.880;12.630;2023-08-30T03:17:48;14.84;85.99
74968;SHT30;63523;51.880;12.630;2023-08-30T03:20:14;14.83;85.85
74968;SHT30;63523;51.880;12.630;2023-08-30T03:22:39;14.83;85.76
74968;SHT30;63523;51.880;12.630;2023-08-30T03:25:05;14.85;85.91
74968;SHT30;63523;51.880;12.630;2023-08-30T03:27:32;14.84;85.54
74968;SHT30;63523;51.880;12.630;2023-08-30T03:29:57;14.85;85.67
74968;SHT30;63523;51.880;12.630;2023-08-30T03:32:23;14.87;85.74
74968;SHT30;63523;51.880;12.630;2023-08-30T03:34:48;14.87;85.89
74968;SHT30;63523;51.880;12.630;2023-08-30T03:37:14;14.88;85.95
74968;SHT30;63523;51.880;12.630;2023-08-30T03:39:39;14.87;85.97
74968;SHT30;63523;51.880;12.630;2023-08-30T03:42:05;14.88;85.88
74968;SHT30;63523;51.880;12.630;2023-08-30T03:44:30;14.94;85.94
74968;SHT30;63523;51.880;12.630;2023-08-30T03:46:55;14.97;85.62
74968;SHT30;63523;51.880;12.630;2023-08-30T03:49:22;15.01;85.55
74968;SHT30;63523;51.880;12.630;2023-08-30T03:51:47;15.02;85.56
74968;SHT30;63523;51.880;12.630;2023-08-30T03:54:13;15.04;85.44
74968;SHT30;63523;51.880;12.630;2023-08-30T03:56:41;15.02;85.31
74968;SHT30;63523;51.880;12.630;2023-08-30T03:59:07;15.05;85.33
74968;SHT30;63523;51.880;12.630;2023-08-30T04:01:33;15.05;85.44
74968;SHT30;63523;51.880;12.630;2023-08-30T04:03:58;15.10;85.49
74968;SHT30;63523;51.880;12.630;2023-08-30T04:06:23;15.07;85.37
74968;SHT30;63523;51.880;12.630;2023-08-30T04:08:49;15.10;85.44
74968;SHT30;63523;51.880;12.630;2023-08-30T04:11:14;15.15;85.56
74968;SHT30;63523;51.880;12.630;2023-08-30T04:13:39;15.15;85.44
74968;SHT30;63523;51.880;12.630;2023-08-30T04:16:04;15.17;85.32
74968;SHT30;63523;51.880;12.630;2023-08-30T04:18:30;15.20;85.41
74968;SHT30;63523;51.880;12.630;2023-08-30T04:20:57;15.22;85.47
74968;SHT30;63523;51.880;12.630;2023-08-30T04:23:23;15.22;85.30
74968;SHT30;63523;51.880;12.630;2023-08-30T04:25:48;15.25;85.29
74968;SHT30;63523;51.880;12.630;2023-08-30T04:28:13;15.24;85.44
74968;SHT30;63523;51.880;12.630;2023-08-30T04:30:39;15.28;85.33
74968;SHT30;63523;51.880;12.630;2023-08-30T04:33:05;15.29;85.28
74968;SHT30;63523;51.880;12.630;2023-08-30T04:35:30;15.31;85.33
74968;SHT30;63523;51.880;12.630;2023-08-30T04:37:58;15.31;85.08
74968;SHT30;63523;51.880;12.630;2023-08-30T04:40:24;15.32;85.36
74968;SHT30;63523;51.880;12.630;2023-08-30T04:42:49;15.38;84.88
74968;SHT30;63523;51.880;12.630;2023-08-30T04:45:14;15.40;84.69
74968;SHT30;63523;51.880;12.630;2023-08-30T04:47:40;15.42;84.47
74968;SHT30;63523;51.880;12.630;2023-08-30T04:50:08;15.46;84.49
74968;SHT30;63523;51.880;12.630;2023-08-30T04:52:33;15.45;84.12
74968;SHT30;63523;51.880;12.630;2023-08-30T04:54:59;15.45;83.94
74968;SHT30;63523;51.880;12.630;2023-08-30T04:57:24;15.43;83.77
74968;SHT30;63523;51.880;12.630;2023-08-30T04:59:50;15.42;83.90
74968;SHT30;63523;51.880;12.630;2023-08-30T05:02:15;15.42;83.99
74968;SHT30;63523;51.880;12.630;2023-08-30T05:04:40;15.40;83.92
74968;SHT30;63523;51.880;12.630;2023-08-30T05:07:06;15.42;83.82
74968;SHT30;63523;51.880;12.630;2023-08-30T05:09:31;15.45;83.90
74968;SHT30;63523;51.880;12.630;2023-08-30T05:11:57;15.45;83.64
74968;SHT30;63523;51.880;12.630;2023-08-30T05:14:23;15.45;83.97
74968;SHT30;63523;51.880;12.630;2023-08-30T05:16:51;15.46;83.97
74968;SHT30;63523;51.880;12.630;2023-08-30T05:19:17;15.48;84.04
74968;SHT30;63523;51.880;12.630;2023-08-30T05:21:43;15.46;84.11
74968;SHT30;63523;51.880;12.630;2023-08-30T05:24:08;15.52;83.99
74968;SHT30;63523;51.880;12.630;2023-08-30T05:26:34;15.57;83.50
74968;SHT30;63523;51.880;12.630;2023-08-30T05:28:59;15.56;83.63
74968;SHT30;63523;51.880;12.630;2023-08-30T05:31:24;15.57;83.78
74968;SHT30;63523;51.880;12.630;2023-08-30T05:33:50;15.53;83.79
74968;SHT30;63523;51.880;12.630;2023-08-30T05:36:15;15.55;83.86
74968;SHT30;63523;51.880;12.630;2023-08-30T05:38:40;15.52;83.97
74968;SHT30;63523;51.880;12.630;2023-08-30T05:41:07;15.52;84.24
74968;SHT30;63523;51.880;12.630;2023-08-30T05:43:32;15.53;84.08
74968;SHT30;63523;51.880;12.630;2023-08-30T05:45:57;15.53;84.31
74968;SHT30;63523;51.880;12.630;2023-08-30T05:48:27;15.57;84.22
74968;SHT30;63523;51.880;12.630;2023-08-30T05:50:52;15.57;84.05
74968;SHT30;63523;51.880;12.630;2023-08-30T05:53:17;15.57;84.31
74968;SHT30;63523;51.880;12.630;2023-08-30T05:55:43;15.57;84.77
74968;SHT30;63523;51.880;12.630;2023-08-30T05:58:08;15.55;84.23
74968;SHT30;63523;51.880;12.630;2023-08-30T06:00:33;15.59;84.22
74968;SHT30;63523;51.880;12.630;2023-08-30T06:02:59;15.62;84.33
74968;SHT30;63523;51.880;12.630;2023-08-30T06:05:24;15.67;84.27
74968;SHT30;63523;51.880;12.630;2023-08-30T06:07:49;15.70;84.20
74968;SHT30;63523;51.880;12.630;2023-08-30T06:10:15;15.73;84.33
74968;SHT30;63523;51.880;12.630;2023-08-30T06:12:40;15.73;84.01
74968;SHT30;63523;51.880;12.630;2023-08-30T06:15:06;15.76;84.44
74968;SHT30;63523;51.880;12.630;2023-08-30T06:17:31;15.73;84.31
74968;SHT30;63523;51.880;12.630;2023-08-30T06:19:57;15.80;84.45
74968;SHT30;63523;51.880;12.630;2023-08-30T06:22:22;15.83;84.34
74968;SHT30;63523;51.880;12.630;2023-08-30T06:24:47;15.84;84.23
74968;SHT30;63523;51.880;12.630;2023-08-30T06:27:13;15.89;84.50
74968;SHT30;63523;51.880;12.630;2023-08-30T06:29:38;15.96;84.19
74968;SHT30;63523;51.880;12.630;2023-08-30T06:32:04;15.97;83.71
74968;SHT30;63523;51.880;12.630;2023-08-30T06:34:30;15.98;83.43
74968;SHT30;63523;51.880;12.630;2023-08-30T06:36:55;16.01;83.11
74968;SHT30;63523;51.880;12.630;2023-08-30T06:39:20;16.02;83.13
74968;SHT30;63523;51.880;12.630;2023-08-30T06:41:45;16.02;82.95
74968;SHT30;63523;51.880;12.630;2023-08-30T06:44:11;16.05;83.01
74968;SHT30;63523;51.880;12.630;2023-08-30T06:46:36;16.10;83.02
74968;SHT30;63523;51.880;12.630;2023-08-30T06:49:03;16.14;82.88
74968;SHT30;63523;51.880;12.630;2023-08-30T06:51:28;16.25;83.15
74968;SHT30;63523;51.880;12.630;2023-08-30T06:53:53;16.35;82.71
74968;SHT30;63523;51.880;12.630;2023-08-30T06:56:20;16.44;82.59
74968;SHT30;63523;51.880;12.630;2023-08-30T06:58:45;16.53;81.75
74968;SHT30;63523;51.880;12.630;2023-08-30T07:01:11;16.63;81.97
74968;SHT30;63523;51.880;12.630;2023-08-30T07:03:36;16.70;82.29
74968;SHT30;63523;51.880;12.630;2023-08-30T07:06:01;16.88;82.11
74968;SHT30;63523;51.880;12.630;2023-08-30T07:08:27;16.97;81.28
74968;SHT30;63523;51.880;12.630;2023-08-30T07:10:53;17.12;80.46
74968;SHT30;63523;51.880;12.630;2023-08-30T07:13:18;17.19;79.58
74968;SHT30;63523;51.880;12.630;2023-08-30T07:15:43;17.25;79.41
74968;SHT30;63523;51.880;12.630;2023-08-30T07:18:09;17.38;79.32
74968;SHT30;63523;51.880;12.630;2023-08-30T07:20:35;17.42;79.00
74968;SHT30;63523;51.880;12.630;2023-08-30T07:23:04;17.45;79.13
74968;SHT30;63523;51.880;12.630;2023-08-30T07:25:29;17.53;79.11
74968;SHT30;63523;51.880;12.630;2023-08-30T07:27:56;17.62;78.32
74968;SHT30;63523;51.880;12.630;2023-08-30T07:30:21;17.72;77.88
74968;SHT30;63523;51.880;12.630;2023-08-30T07:32:46;17.82;78.57
74968;SHT30;63523;51.880;12.630;2023-08-30T07:35:12;17.91;78.33
74968;SHT30;63523;51.880;12.630;2023-08-30T07:37:38;17.94;77.27
74968;SHT30;63523;51.880;12.630;2023-08-30T07:40:03;17.93;77.12
74968;SHT30;63523;51.880;12.630;2023-08-30T07:42:32;17.83;76.99
74968;SHT30;63523;51.880;12.630;2023-08-30T07:44:57;17.80;77.62
74968;SHT30;63523;51.880;12.630;2023-08-30T07:47:22;17.83;76.16
74968;SHT30;63523;51.880;12.630;2023-08-30T07:49:48;17.79;77.24
74968;SHT30;63523;51.880;12.630;2023-08-30T07:52:13;17.72;77.24
74968;SHT30;63523;51.880;12.630;2023-08-30T07:54:40;17.65;77.83
74968;SHT30;63523;51.880;12.630;2023-08-30T07:57:05;17.66;77.03
74968;SHT30;63523;51.880;12.630;2023-08-30T07:59:37;17.70;77.14
74968;SHT30;63523;51.880;12.630;2023-08-30T08:02:06;17.73;78.14
74968;SHT30;63523;51.880;12.630;2023-08-30T08:04:33;17.77;77.42
74968;SHT30;63523;51.880;12.630;2023-08-30T08:06:58;17.86;75.94
74968;SHT30;63523;51.880;12.630;2023-08-30T08:09:24;17.89;75.92
74968;SHT30;63523;51.880;12.630;2023-08-30T08:11:49;17.90;77.05
74968;SHT30;63523;51.880;12.630;2023-08-30T08:14:15;17.98;76.08
74968;SHT30;63523;51.880;12.630;2023-08-30T08:16:40;18.18;76.24
74968;SHT30;63523;51.880;12.630;2023-08-30T08:19:06;18.29;75.21
74968;SHT30;63523;51.880;12.630;2023-08-30T08:21:33;18.35;74.05
74968;SHT30;63523;51.880;12.630;2023-08-30T08:23:58;18.49;74.19
74968;SHT30;63523;51.880;12.630;2023-08-30T08:26:23;18.66;73.99
74968;SHT30;63523;51.880;12.630;2023-08-30T08:28:50;18.94;73.34
74968;SHT30;63523;51.880;12.630;2023-08-30T08:31:15;19.17;73.58
74968;SHT30;63523;51.880;12.630;2023-08-30T08:33:40;19.35;73.11
74968;SHT30;63523;51.880;12.630;2023-08-30T08:36:06;19.61;71.05
74968;SHT30;63523;51.880;12.630;2023-08-30T08:38:31;19.76;69.60
74968;SHT30;63523;51.880;12.630;2023-08-30T08:41:02;19.83;70.48
74968;SHT30;63523;51.880;12.630;2023-08-30T08:43:29;19.90;70.89
74968;SHT30;63523;51.880;12.630;2023-08-30T08:45:57;20.00;68.66
74968;SHT30;63523;51.880;12.630;2023-08-30T08:48:25;19.93;67.77
74968;SHT30;63523;51.880;12.630;2023-08-30T08:50:54;19.93;67.20
74968;SHT30;63523;51.880;12.630;2023-08-30T08:53:19;19.87;66.72
74968;SHT30;63523;51.880;12.630;2023-08-30T08:55:46;19.96;66.26
74968;SHT30;63523;51.880;12.630;2023-08-30T08:58:12;20.11;66.42
74968;SHT30;63523;51.880;12.630;2023-08-30T09:00:38;20.25;67.14
74968;SHT30;63523;51.880;12.630;2023-08-30T09:03:05;20.36;64.27
74968;SHT30;63523;51.880;12.630;2023-08-30T09:05:31;20.45;63.10
74968;SHT30;63523;51.880;12.630;2023-08-30T09:07:57;20.59;62.98
74968;SHT30;63523;51.880;12.630;2023-08-30T09:10:23;20.62;63.62
74968;SHT30;63523;51.880;12.630;2023-08-30T09:12:48;20.57;64.32
74968;SHT30;63523;51.880;12.630;2023-08-30T09:15:14;20.49;64.73
74968;SHT30;63523;51.880;12.630;2023-08-30T09:17:40;20.53;64.26
74968;SHT30;63523;51.880;12.630;2023-08-30T09:20:10;20.83;62.72
74968;SHT30;63523;51.880;12.630;2023-08-30T09:22:40;20.97;62.15
74968;SHT30;63523;51.880;12.630;2023-08-30T09:25:10;21.11;60.63
74968;SHT30;63523;51.880;12.630;2023-08-30T09:27:36;21.37;59.19
74968;SHT30;63523;51.880;12.630;2023-08-30T09:30:05;21.45;59.01
74968;SHT30;63523;51.880;12.630;2023-08-30T09:32:38;21.55;56.35
74968;SHT30;63523;51.880;12.630;2023-08-30T09:35:04;21.58;57.53
74968;SHT30;63523;51.880;12.630;2023-08-30T09:37:30;21.58;58.27
74968;SHT30;63523;51.880;12.630;2023-08-30T09:39:55;21.59;57.04
74968;SHT30;63523;51.880;12.630;2023-08-30T09:42:22;21.63;54.30
74968;SHT30;63523;51.880;12.630;2023-08-30T09:44:47;21.72;56.08
74968;SHT30;63523;51.880;12.630;2023-08-30T09:47:13;21.75;53.39
74968;SHT30;63523;51.880;12.630;2023-08-30T09:49:44;21.60;54.85
74968;SHT30;63523;51.880;12.630;2023-08-30T09:52:15;21.69;54.18
74968;SHT30;63523;51.880;12.630;2023-08-30T09:54:41;21.80;54.18
74968;SHT30;63523;51.880;12.630;2023-08-30T09:57:11;21.96;53.61
74968;SHT30;63523;51.880;12.630;2023-08-30T09:59:39;22.22;49.71
74968;SHT30;63523;51.880;12.630;2023-08-30T10:02:05;22.35;52.41
74968;SHT30;63523;51.880;12.630;2023-08-30T10:04:31;22.35;50.53
74968;SHT30;63523;51.880;12.630;2023-08-30T10:06:57;22.42;51.19
74968;SHT30;63523;51.880;12.630;2023-08-30T10:09:24;22.47;52.99
74968;SHT30;63523;51.880;12.630;2023-08-30T10:11:50;22.73;52.13
74968;SHT30;63523;51.880;12.630;2023-08-30T10:14:16;23.06;52.83
74968;SHT30;63523;51.880;12.630;2023-08-30T10:16:44;23.35;52.81
74968;SHT30;63523;51.880;12.630;2023-08-30T10:19:24;23.49;47.12
74968;SHT30;63523;51.880;12.630;2023-08-30T10:24:24;23.75;49.36
74968;SHT30;63523;51.880;12.630;2023-08-30T10:26:50;23.93;48.55
74968;SHT30;63523;51.880;12.630;2023-08-30T10:29:16;24.11;44.97
74968;SHT30;63523;51.880;12.630;2023-08-30T10:31:42;24.20;43.73
74968;SHT30;63523;51.880;12.630;2023-08-30T10:34:16;24.37;43.15
74968;SHT30;63523;51.880;12.630;2023-08-30T10:36:43;24.16;43.96
74968;SHT30;63523;51.880;12.630;2023-08-30T10:39:14;23.99;44.67
74968;SHT30;63523;51.880;12.630;2023-08-30T10:41:58;23.45;44.50
74968;SHT30;63523;51.880;12.630;2023-08-30T10:44:23;23.37;47.08
74968;SHT30;63523;51.880;12.630;2023-08-30T10:46:52;23.47;47.77
74968;SHT30;63523;51.880;12.630;2023-08-30T10:49:19;23.59;48.20
74968;SHT30;63523;51.880;12.630;2023-08-30T10:51:45;23.58;47.01
74968;SHT30;63523;51.880;12.630;2023-08-30T10:54:14;23.55;47.73
74968;SHT30;63523;51.880;12.630;2023-08-30T10:56:57;23.20;48.17
74968;SHT30;63523;51.880;12.630;2023-08-30T10:59:26;22.83;48.17
74968;SHT30;63523;51.880;12.630;2023-08-30T11:01:52;23.28;49.83
74968;SHT30;63523;51.880;12.630;2023-08-30T11:04:18;23.77;48.40
74968;SHT30;63523;51.880;12.630;2023-08-30T11:06:45;23.87;45.50
74968;SHT30;63523;51.880;12.630;2023-08-30T11:09:13;23.97;46.72
74968;SHT30;63523;51.880;12.630;2023-08-30T11:11:39;24.20;46.09
74968;SHT30;63523;51.880;12.630;2023-08-30T11:14:08;24.31;45.62
74968;SHT30;63523;51.880;12.630;2023-08-30T11:16:34;24.59;44.86
74968;SHT30;63523;51.880;12.630;2023-08-30T11:19:03;25.04;44.20
74968;SHT30;63523;51.880;12.630;2023-08-30T11:21:42;25.45;43.48
74968;SHT30;63523;51.880;12.630;2023-08-30T11:24:08;25.51;43.78
74968;SHT30;63523;51.880;12.630;2023-08-30T11:26:33;25.57;45.21
74968;SHT30;63523;51.880;12.630;2023-08-30T11:29:09;25.44;43.35
74968;SHT30;63523;51.880;12.630;2023-08-30T11:31:34;25.02;44.93
74968;SHT30;63523;51.880;12.630;2023-08-30T11:34:00;24.57;45.01
74968;SHT30;63523;51.880;12.630;2023-08-30T11:36:28;24.18;47.76
74968;SHT30;63523;51.880;12.630;2023-08-30T11:38:54;23.90;48.80
74968;SHT30;63523;51.880;12.630;2023-08-30T11:41:23;23.58;47.85
74968;SHT30;63523;51.880;12.630;2023-08-30T11:43:49;23.40;49.30
74968;SHT30;63523;51.880;12.630;2023-08-30T11:46:14;23.32;50.77
74968;SHT30;63523;51.880;12.630;2023-08-30T11:48:40;23.42;48.44
74968;SHT30;63523;51.880;12.630;2023-08-30T11:51:07;23.45;48.19
74968;SHT30;63523;51.880;12.630;2023-08-30T11:53:33;23.48;49.18
74968;SHT30;63523;51.880;12.630;2023-08-30T11:55:59;23.41;48.85
74968;SHT30;63523;51.880;12.630;2023-08-30T11:58:24;23.45;48.10
74968;SHT30;63523;51.880;12.630;2023-08-30T12:00:50;23.48;46.94
74968;SHT30;63523;51.880;12.630;2023-08-30T12:03:16;23.45;48.36
74968;SHT30;63523;51.880;12.630;2023-08-30T12:05:49;23.41;46.87
74968;SHT30;63523;51.880;12.630;2023-08-30T12:08:23;23.54;48.53
74968;SHT30;63523;51.880;12.630;2023-08-30T12:10:48;23.55;49.06
74968;SHT30;63523;51.880;12.630;2023-08-30T12:13:40;23.52;49.43
74968;SHT30;63523;51.880;12.630;2023-08-30T12:16:05;23.51;49.02
74968;SHT30;63523;51.880;12.630;2023-08-30T12:18:34;23.58;47.97
74968;SHT30;63523;51.880;12.630;2023-08-30T12:21:03;23.69;47.62
74968;SHT30;63523;51.880;12.630;2023-08-30T12:23:30;23.63;48.80
74968;SHT30;63523;51.880;12.630;2023-08-30T12:26:10;23.65;48.50
74968;SHT30;63523;51.880;12.630;2023-08-30T12:28:40;23.61;49.30
74968;SHT30;63523;51.880;12.630;2023-08-30T12:31:06;23.54;48.26
74968;SHT30;63523;51.880;12.630;2023-08-30T12:33:34;23.51;48.35
74968;SHT30;63523;51.880;12.630;2023-08-30T12:36:00;23.41;49.42
74968;SHT30;63523;51.880;12.630;2023-08-30T12:38:26;23.28;48.28
74968;SHT30;63523;51.880;12.630;2023-08-30T12:40:52;23.18;49.43
74968;SHT30;63523;51.880;12.630;2023-08-30T12:43:18;23.13;50.65
74968;SHT30;63523;51.880;12.630;2023-08-30T12:45:45;23.11;50.16
74968;SHT30;63523;51.880;12.630;2023-08-30T12:48:12;23.10;50.41
74968;SHT30;63523;51.880;12.630;2023-08-30T12:50:39;23.24;50.18
74968;SHT30;63523;51.880;12.630;2023-08-30T12:53:06;23.35;48.89
74968;SHT30;63523;51.880;12.630;2023-08-30T12:55:31;23.41;48.64
74968;SHT30;63523;51.880;12.630;2023-08-30T12:57:57;23.32;47.55
74968;SHT30;63523;51.880;12.630;2023-08-30T13:00:23;23.31;51.67
74968;SHT30;63523;51.880;12.630;2023-08-30T13:02:48;23.44;49.30
74968;SHT30;63523;51.880;12.630;2023-08-30T13:05:14;23.48;47.92
74968;SHT30;63523;51.880;12.630;2023-08-30T13:07:39;23.54;46.61
74968;SHT30;63523;51.880;12.630;2023-08-30T13:10:06;23.55;46.26
74968;SHT30;63523;51.880;12.630;2023-08-30T13:12:31;23.62;46.50
74968;SHT30;63523;51.880;12.630;2023-08-30T13:14:56;23.68;45.98
74968;SHT30;63523;51.880;12.630;2023-08-30T13:17:22;23.76;46.51
74968;SHT30;63523;51.880;12.630;2023-08-30T13:19:47;23.68;46.91
74968;SHT30;63523;51.880;12.630;2023-08-30T13:22:12;23.62;44.66
74968;SHT30;63523;51.880;12.630;2023-08-30T13:24:38;23.47;46.99
74968;SHT30;63523;51.880;12.630;2023-08-30T13:27:03;23.31;46.48
74968;SHT30;63523;51.880;12.630;2023-08-30T13:29:29;23.24;46.83
74968;SHT30;63523;51.880;12.630;2023-08-30T13:31:55;23.20;48.15
74968;SHT30;63523;51.880;12.630;2023-08-30T13:34:20;23.23;48.73
74968;SHT30;63523;51.880;12.630;2023-08-30T13:36:45;23.40;45.51
74968;SHT30;63523;51.880;12.630;2023-08-30T13:39:10;23.27;46.78
74968;SHT30;63523;51.880;12.630;2023-08-30T13:41:36;23.06;47.74
74968;SHT30;63523;51.880;12.630;2023-08-30T13:44:02;22.80;49.09
74968;SHT30;63523;51.880;12.630;2023-08-30T13:46:29;22.59;47.43
74968;SHT30;63523;51.880;12.630;2023-08-30T13:48:54;22.45;50.11
74968;SHT30;63523;51.880;12.630;2023-08-30T13:51:21;22.37;47.17
74968;SHT30;63523;51.880;12.630;2023-08-30T13:53:47;22.42;47.59
74968;SHT30;63523;51.880;12.630;2023-08-30T13:56:12;22.65;48.57
74968;SHT30;63523;51.880;12.630;2023-08-30T13:58:38;22.79;49.03
74968;SHT30;63523;51.880;12.630;2023-08-30T14:01:03;22.82;48.23
74968;SHT30;63523;51.880;12.630;2023-08-30T14:03:30;22.82;47.06
74968;SHT30;63523;51.880;12.630;2023-08-30T14:05:55;22.86;47.71
74968;SHT30;63523;51.880;12.630;2023-08-30T14:08:20;22.77;45.55
74968;SHT30;63523;51.880;12.630;2023-08-30T14:10:46;22.80;47.54
74968;SHT30;63523;51.880;12.630;2023-08-30T14:13:11;22.70;46.40
74968;SHT30;63523;51.880;12.630;2023-08-30T14:15:36;22.68;46.71
74968;SHT30;63523;51.880;12.630;2023-08-30T14:18:02;22.70;47.21
74968;SHT30;63523;51.880;12.630;2023-08-30T14:20:28;22.82;45.32
74968;SHT30;63523;51.880;12.630;2023-08-30T14:22:53;22.95;44.61
74968;SHT30;63523;51.880;12.630;2023-08-30T14:25:18;23.03;44.23
74968;SHT30;63523;51.880;12.630;2023-08-30T14:27:44;23.13;44.39
74968;SHT30;63523;51.880;12.630;2023-08-30T14:30:09;23.20;44.92
74968;SHT30;63523;51.880;12.630;2023-08-30T14:32:35;23.13;45.83
74968;SHT30;63523;51.880;12.630;2023-08-30T14:35:00;23.07;44.26
74968;SHT30;63523;51.880;12.630;2023-08-30T14:37:25;23.03;45.21
74968;SHT30;63523;51.880;12.630;2023-08-30T14:39:53;23.06;45.63
74968;SHT30;63523;51.880;12.630;2023-08-30T14:42:20;23.08;45.48
74968;SHT30;63523;51.880;12.630;2023-08-30T14:44:49;23.00;44.77
74968;SHT30;63523;51.880;12.630;2023-08-30T14:47:16;22.95;44.06
74968;SHT30;63523;51.880;12.630;2023-08-30T14:49:41;22.87;44.85
74968;SHT30;63523;51.880;12.630;2023-08-30T14:52:06;22.79;44.71
74968;SHT30;63523;51.880;12.630;2023-08-30T14:54:32;22.73;45.40
74968;SHT30;63523;51.880;12.630;2023-08-30T14:56:57;22.73;45.20
74968;SHT30;63523;51.880;12.630;2023-08-30T14:59:22;22.65;46.85
74968;SHT30;63523;51.880;12.630;2023-08-30T15:01:48;22.60;47.93
74968;SHT30;63523;51.880;12.630;2023-08-30T15:04:13;22.58;47.90
74968;SHT30;63523;51.880;12.630;2023-08-30T15:06:38;22.56;45.95
74968;SHT30;63523;51.880;12.630;2023-08-30T15:09:05;22.55;46.56
74968;SHT30;63523;51.880;12.630;2023-08-30T15:11:30;22.52;47.26
74968;SHT30;63523;51.880;12.630;2023-08-30T15:13:55;22.51;46.77
74968;SHT30;63523;51.880;12.630;2023-08-30T15:16:21;22.41;46.47